sensor_id;sensor_type;location;lat;lon;timestamp;P1;durP1;ratioP1;P2;durP2;ratioP2
5491;SDS011;2768;53.540;10.224;2023-04-15T00:01:21;4.30;;;3.93;;
5491;SDS011;2768;53.540;10.224;2023-04-15T00:07:15;4.57;;;4.17;;
5491;SDS011;2768;53.540;10.224;2023-04-15T00:13:09;5.40;;;4.20;;
5491;SDS011;2768;53.540;10.224;2023-04-15T00:19:03;4.30;;;3.90;;
5491;SDS011;2768;53.540;10.224;2023-04-15T00:24:57;3.53;;;3.27;;
5491;SDS011;2768;53.540;10.224;2023-04-15T00:30:51;3.87;;;3.57;;
5491;SDS011;2768;53.540;10.224;2023-04-15T00:36:46;3.47;;;3.17;;
5491;SDS011;2768;53.540;10.224;2023-04-15T00:42:39;3.53;;;3.23;;
5491;SDS011;2768;53.540;10.224;2023-04-15T00:48:32;3.93;;;3.63;;
5491;SDS011;2768;53.540;10.224;2023-04-15T00:54:28;3.80;;;3.47;;
5491;SDS011;2768;53.540;10.224;2023-04-15T01:00:22;4.30;;;3.90;;
5491;SDS011;2768;53.540;10.224;2023-04-15T01:06:16;4.40;;;4.00;;
5491;SDS011;2768;53.540;10.224;2023-04-15T01:12:12;4.33;;;3.93;;
5491;SDS011;2768;53.540;10.224;2023-04-15T01:18:07;4.63;;;4.23;;
5491;SDS011;2768;53.540;10.224;2023-04-15T01:24:01;3.80;;;3.50;;
5491;SDS011;2768;53.540;10.224;2023-04-15T01:30:01;4.33;;;4.00;;
5491;SDS011;2768;53.540;10.224;2023-04-15T01:35:56;4.50;;;4.10;;
5491;SDS011;2768;53.540;10.224;2023-04-15T01:41:49;4.97;;;4.50;;
5491;SDS011;2768;53.540;10.224;2023-04-15T01:47:44;4.40;;;4.00;;
5491;SDS011;2768;53.540;10.224;2023-04-15T01:53:38;5.30;;;4.80;;
5491;SDS011;2768;53.540;10.224;2023-04-15T01:59:32;6.00;;;5.10;;
5491;SDS011;2768;53.540;10.224;2023-04-15T02:05:27;5.50;;;5.00;;
5491;SDS011;2768;53.540;10.224;2023-04-15T02:11:20;5.87;;;5.27;;
5491;SDS011;2768;53.540;10.224;2023-04-15T02:17:16;7.30;;;6.50;;
5491;SDS011;2768;53.540;10.224;2023-04-15T02:23:11;8.30;;;6.73;;
5491;SDS011;2768;53.540;10.224;2023-04-15T02:29:07;8.20;;;7.37;;
5491;SDS011;2768;53.540;10.224;2023-04-15T02:35:01;8.80;;;7.50;;
5491;SDS011;2768;53.540;10.224;2023-04-15T02:40:57;9.07;;;7.70;;
5491;SDS011;2768;53.540;10.224;2023-04-15T02:46:52;9.60;;;8.47;;
5491;SDS011;2768;53.540;10.224;2023-04-15T02:52:45;11.43;;;10.23;;
5491;SDS011;2768;53.540;10.224;2023-04-15T02:58:40;11.90;;;9.97;;
5491;SDS011;2768;53.540;10.224;2023-04-15T03:04:35;14.20;;;11.20;;
5491;SDS011;2768;53.540;10.224;2023-04-15T03:10:29;14.87;;;10.87;;
5491;SDS011;2768;53.540;10.224;2023-04-15T03:16:23;17.10;;;13.20;;
5491;SDS011;2768;53.540;10.224;2023-04-15T03:22:16;15.30;;;11.80;;
5491;SDS011;2768;53.540;10.224;2023-04-15T03:28:11;15.43;;;11.83;;
5491;SDS011;2768;53.540;10.224;2023-04-15T03:34:06;17.97;;;13.30;;
5491;SDS011;2768;53.540;10.224;2023-04-15T03:40:00;17.90;;;13.00;;
5491;SDS011;2768;53.540;10.224;2023-04-15T03:45:54;17.47;;;12.43;;
5491;SDS011;2768;53.540;10.224;2023-04-15T03:51:48;15.37;;;11.60;;
5491;SDS011;2768;53.540;10.224;2023-04-15T03:57:42;19.43;;;13.90;;
5491;SDS011;2768;53.540;10.224;2023-04-15T04:03:35;18.97;;;12.87;;
5491;SDS011;2768;53.540;10.224;2023-04-15T04:09:30;18.30;;;12.53;;
5491;SDS011;2768;53.540;10.224;2023-04-15T04:15:23;18.73;;;14.13;;
5491;SDS011;2768;53.540;10.224;2023-04-15T04:21:17;19.13;;;15.37;;
5491;SDS011;2768;53.540;10.224;2023-04-15T04:27:13;20.10;;;15.10;;
5491;SDS011;2768;53.540;10.224;2023-04-15T04:33:06;21.23;;;15.40;;
5491;SDS011;2768;53.540;10.224;2023-04-15T04:39:00;25.33;;;18.07;;
5491;SDS011;2768;53.540;10.224;2023-04-15T04:44:55;25.03;;;18.20;;
5491;SDS011;2768;53.540;10.224;2023-04-15T04:50:49;28.80;;;19.93;;
5491;SDS011;2768;53.540;10.224;2023-04-15T04:56:42;31.07;;;20.40;;
5491;SDS011;2768;53.540;10.224;2023-04-15T05:02:37;29.50;;;20.70;;
5491;SDS011;2768;53.540;10.224;2023-04-15T05:08:32;31.97;;;21.57;;
5491;SDS011;2768;53.540;10.224;2023-04-15T05:14:25;32.10;;;23.03;;
5491;SDS011;2768;53.540;10.224;2023-04-15T05:20:20;31.17;;;23.13;;
5491;SDS011;2768;53.540;10.224;2023-04-15T05:26:13;29.73;;;22.00;;
5491;SDS011;2768;53.540;10.224;2023-04-15T05:32:07;34.00;;;24.90;;
5491;SDS011;2768;53.540;10.224;2023-04-15T05:38:02;31.73;;;24.90;;
5491;SDS011;2768;53.540;10.224;2023-04-15T05:43:57;32.20;;;23.47;;
5491;SDS011;2768;53.540;10.224;2023-04-15T05:49:51;31.93;;;25.40;;
5491;SDS011;2768;53.540;10.224;2023-04-15T05:55:45;34.93;;;23.97;;
5491;SDS011;2768;53.540;10.224;2023-04-15T06:01:39;35.40;;;26.23;;
5491;SDS011;2768;53.540;10.224;2023-04-15T06:07:33;38.77;;;26.63;;
5491;SDS011;2768;53.540;10.224;2023-04-15T06:13:28;39.60;;;26.37;;
5491;SDS011;2768;53.540;10.224;2023-04-15T06:19:21;36.20;;;26.07;;
5491;SDS011;2768;53.540;10.224;2023-04-15T06:25:15;37.03;;;26.33;;
5491;SDS011;2768;53.540;10.224;2023-04-15T06:31:10;38.27;;;27.40;;
5491;SDS011;2768;53.540;10.224;2023-04-15T06:37:04;37.30;;;26.03;;
5491;SDS011;2768;53.540;10.224;2023-04-15T06:42:57;39.47;;;28.57;;
5491;SDS011;2768;53.540;10.224;2023-04-15T06:48:52;41.77;;;29.70;;
5491;SDS011;2768;53.540;10.224;2023-04-15T06:54:45;38.40;;;27.80;;
5491;SDS011;2768;53.540;10.224;2023-04-15T07:00:38;36.67;;;26.47;;
5491;SDS011;2768;53.540;10.224;2023-04-15T07:06:34;42.90;;;29.60;;
5491;SDS011;2768;53.540;10.224;2023-04-15T07:12:27;41.80;;;26.80;;
5491;SDS011;2768;53.540;10.224;2023-04-15T07:18:20;38.10;;;26.57;;
5491;SDS011;2768;53.540;10.224;2023-04-15T07:24:15;36.77;;;27.60;;
5491;SDS011;2768;53.540;10.224;2023-04-15T07:30:10;40.33;;;28.07;;
5491;SDS011;2768;53.540;10.224;2023-04-15T07:36:04;38.90;;;28.20;;
5491;SDS011;2768;53.540;10.224;2023-04-15T07:41:58;37.93;;;27.17;;
5491;SDS011;2768;53.540;10.224;2023-04-15T07:47:52;36.80;;;27.70;;
5491;SDS011;2768;53.540;10.224;2023-04-15T07:53:46;40.17;;;29.60;;
5491;SDS011;2768;53.540;10.224;2023-04-15T07:59:42;37.73;;;28.23;;
5491;SDS011;2768;53.540;10.224;2023-04-15T08:05:35;39.67;;;30.27;;
5491;SDS011;2768;53.540;10.224;2023-04-15T08:11:28;40.73;;;28.10;;
5491;SDS011;2768;53.540;10.224;2023-04-15T08:17:23;38.60;;;29.47;;
5491;SDS011;2768;53.540;10.224;2023-04-15T08:23:16;41.00;;;28.83;;
5491;SDS011;2768;53.540;10.224;2023-04-15T08:29:10;38.90;;;29.50;;
5491;SDS011;2768;53.540;10.224;2023-04-15T08:35:04;43.17;;;30.50;;
5491;SDS011;2768;53.540;10.224;2023-04-15T08:40:59;47.67;;;32.97;;
5491;SDS011;2768;53.540;10.224;2023-04-15T08:46:55;43.80;;;31.00;;
5491;SDS011;2768;53.540;10.224;2023-04-15T08:52:54;43.47;;;30.20;;
5491;SDS011;2768;53.540;10.224;2023-04-15T08:58:50;43.67;;;29.60;;
5491;SDS011;2768;53.540;10.224;2023-04-15T09:04:45;42.53;;;28.40;;
5491;SDS011;2768;53.540;10.224;2023-04-15T09:10:39;39.10;;;28.70;;
5491;SDS011;2768;53.540;10.224;2023-04-15T09:22:54;38.27;;;26.23;;
5491;SDS011;2768;53.540;10.224;2023-04-15T09:28:49;32.77;;;24.43;;
5491;SDS011;2768;53.540;10.224;2023-04-15T09:34:43;31.87;;;23.50;;
5491;SDS011;2768;53.540;10.224;2023-04-15T09:40:37;35.20;;;24.20;;
5491;SDS011;2768;53.540;10.224;2023-04-15T09:46:43;28.90;;;21.37;;
5491;SDS011;2768;53.540;10.224;2023-04-15T09:52:40;30.10;;;21.90;;
5491;SDS011;2768;53.540;10.224;2023-04-15T09:58:34;26.80;;;21.03;;
5491;SDS011;2768;53.540;10.224;2023-04-15T10:04:30;30.17;;;19.67;;
5491;SDS011;2768;53.540;10.224;2023-04-15T10:10:27;21.60;;;18.57;;
5491;SDS011;2768;53.540;10.224;2023-04-15T10:16:21;26.30;;;17.63;;
5491;SDS011;2768;53.540;10.224;2023-04-15T10:22:19;20.03;;;17.30;;
5491;SDS011;2768;53.540;10.224;2023-04-15T10:28:14;21.13;;;16.13;;
5491;SDS011;2768;53.540;10.224;2023-04-15T10:34:08;17.27;;;15.43;;
5491;SDS011;2768;53.540;10.224;2023-04-15T10:46:23;16.17;;;14.33;;
5491;SDS011;2768;53.540;10.224;2023-04-15T10:52:27;16.97;;;14.43;;
5491;SDS011;2768;53.540;10.224;2023-04-15T10:58:23;18.17;;;14.33;;
5491;SDS011;2768;53.540;10.224;2023-04-15T11:10:52;16.67;;;13.93;;
5491;SDS011;2768;53.540;10.224;2023-04-15T11:16:47;16.17;;;14.47;;
5491;SDS011;2768;53.540;10.224;2023-04-15T11:22:45;14.93;;;13.20;;
5491;SDS011;2768;53.540;10.224;2023-04-15T11:28:40;18.10;;;14.83;;
5491;SDS011;2768;53.540;10.224;2023-04-15T11:34:37;15.13;;;13.53;;
5491;SDS011;2768;53.540;10.224;2023-04-15T11:40:30;17.47;;;14.00;;
5491;SDS011;2768;53.540;10.224;2023-04-15T11:46:28;15.33;;;13.60;;
5491;SDS011;2768;53.540;10.224;2023-04-15T11:52:24;13.03;;;11.40;;
5491;SDS011;2768;53.540;10.224;2023-04-15T11:58:18;12.37;;;11.03;;
5491;SDS011;2768;53.540;10.224;2023-04-15T12:04:14;12.73;;;11.43;;
5491;SDS011;2768;53.540;10.224;2023-04-15T12:10:15;12.83;;;11.53;;
5491;SDS011;2768;53.540;10.224;2023-04-15T12:16:09;14.70;;;12.57;;
5491;SDS011;2768;53.540;10.224;2023-04-15T12:22:03;16.43;;;13.00;;
5491;SDS011;2768;53.540;10.224;2023-04-15T12:27:59;13.90;;;12.23;;
5491;SDS011;2768;53.540;10.224;2023-04-15T12:33:53;14.23;;;12.83;;
5491;SDS011;2768;53.540;10.224;2023-04-15T12:39:47;13.17;;;11.60;;
5491;SDS011;2768;53.540;10.224;2023-04-15T12:45:43;14.07;;;12.30;;
5491;SDS011;2768;53.540;10.224;2023-04-15T12:51:37;13.23;;;11.87;;
5491;SDS011;2768;53.540;10.224;2023-04-15T12:57:30;14.10;;;12.60;;
5491;SDS011;2768;53.540;10.224;2023-04-15T13:03:25;14.73;;;12.90;;
5491;SDS011;2768;53.540;10.224;2023-04-15T13:09:18;17.00;;;14.07;;
5491;SDS011;2768;53.540;10.224;2023-04-15T13:15:12;16.33;;;14.60;;
5491;SDS011;2768;53.540;10.224;2023-04-15T13:21:07;15.53;;;12.27;;
5491;SDS011;2768;53.540;10.224;2023-04-15T13:27:01;13.73;;;12.00;;
5491;SDS011;2768;53.540;10.224;2023-04-15T13:32:55;14.30;;;12.73;;
5491;SDS011;2768;53.540;10.224;2023-04-15T13:38:50;13.17;;;11.43;;
5491;SDS011;2768;53.540;10.224;2023-04-15T13:44:44;13.60;;;12.20;;
5491;SDS011;2768;53.540;10.224;2023-04-15T13:50:38;14.20;;;12.80;;
5491;SDS011;2768;53.540;10.224;2023-04-15T13:56:37;12.47;;;10.60;;
5491;SDS011;2768;53.540;10.224;2023-04-15T14:02:30;9.27;;;8.37;;
5491;SDS011;2768;53.540;10.224;2023-04-15T14:08:24;9.93;;;8.83;;
5491;SDS011;2768;53.540;10.224;2023-04-15T14:14:19;10.50;;;9.40;;
5491;SDS011;2768;53.540;10.224;2023-04-15T14:20:13;10.27;;;9.27;;
5491;SDS011;2768;53.540;10.224;2023-04-15T14:26:07;10.67;;;9.60;;
5491;SDS011;2768;53.540;10.224;2023-04-15T14:32:02;11.13;;;10.07;;
5491;SDS011;2768;53.540;10.224;2023-04-15T14:38:03;9.63;;;8.83;;
5491;SDS011;2768;53.540;10.224;2023-04-15T14:43:56;14.73;;;9.27;;
5491;SDS011;2768;53.540;10.224;2023-04-15T14:49:50;10.80;;;9.80;;
5491;SDS011;2768;53.540;10.224;2023-04-15T14:55:44;12.47;;;10.20;;
5491;SDS011;2768;53.540;10.224;2023-04-15T15:01:37;12.20;;;10.93;;
5491;SDS011;2768;53.540;10.224;2023-04-15T15:07:32;11.37;;;10.37;;
5491;SDS011;2768;53.540;10.224;2023-04-15T15:13:26;12.40;;;10.00;;
5491;SDS011;2768;53.540;10.224;2023-04-15T15:19:20;12.57;;;10.27;;
5491;SDS011;2768;53.540;10.224;2023-04-15T15:25:15;11.30;;;10.30;;
5491;SDS011;2768;53.540;10.224;2023-04-15T15:31:09;9.83;;;8.73;;
5491;SDS011;2768;53.540;10.224;2023-04-15T15:37:02;10.07;;;9.17;;
5491;SDS011;2768;53.540;10.224;2023-04-15T15:42:57;10.20;;;9.20;;
5491;SDS011;2768;53.540;10.224;2023-04-15T15:48:50;10.80;;;9.80;;
5491;SDS011;2768;53.540;10.224;2023-04-15T15:54:44;11.93;;;10.73;;
5491;SDS011;2768;53.540;10.224;2023-04-15T16:00:38;12.33;;;11.07;;
5491;SDS011;2768;53.540;10.224;2023-04-15T16:06:33;13.77;;;12.50;;
5491;SDS011;2768;53.540;10.224;2023-04-15T16:12:26;12.97;;;11.77;;
5491;SDS011;2768;53.540;10.224;2023-04-15T16:18:21;13.77;;;12.37;;
5491;SDS011;2768;53.540;10.224;2023-04-15T16:24:15;15.77;;;14.17;;
5491;SDS011;2768;53.540;10.224;2023-04-15T16:30:09;16.13;;;14.23;;
5491;SDS011;2768;53.540;10.224;2023-04-15T16:36:04;16.77;;;15.03;;
5491;SDS011;2768;53.540;10.224;2023-04-15T16:41:58;17.40;;;15.37;;
5491;SDS011;2768;53.540;10.224;2023-04-15T16:47:53;18.00;;;16.10;;
5491;SDS011;2768;53.540;10.224;2023-04-15T16:53:48;18.33;;;16.13;;
5491;SDS011;2768;53.540;10.224;2023-04-15T16:59:42;19.20;;;15.40;;
5491;SDS011;2768;53.540;10.224;2023-04-15T17:05:36;18.40;;;16.50;;
5491;SDS011;2768;53.540;10.224;2023-04-15T17:11:31;22.40;;;15.37;;
5491;SDS011;2768;53.540;10.224;2023-04-15T17:17:26;17.40;;;15.80;;
5491;SDS011;2768;53.540;10.224;2023-04-15T17:23:19;19.60;;;15.53;;
5491;SDS011;2768;53.540;10.224;2023-04-15T17:29:14;19.97;;;16.50;;
5491;SDS011;2768;53.540;10.224;2023-04-15T17:35:08;19.37;;;16.20;;
5491;SDS011;2768;53.540;10.224;2023-04-15T17:41:02;17.83;;;14.57;;
5491;SDS011;2768;53.540;10.224;2023-04-15T17:46:59;16.23;;;14.53;;
5491;SDS011;2768;53.540;10.224;2023-04-15T17:52:53;18.40;;;15.13;;
5491;SDS011;2768;53.540;10.224;2023-04-15T17:58:46;18.70;;;15.83;;
5491;SDS011;2768;53.540;10.224;2023-04-15T18:04:41;17.60;;;15.13;;
5491;SDS011;2768;53.540;10.224;2023-04-15T18:10:35;17.07;;;15.27;;
5491;SDS011;2768;53.540;10.224;2023-04-15T18:19:02;17.17;;;15.03;;
5491;SDS011;2768;53.540;10.224;2023-04-15T18:24:56;19.47;;;15.60;;
5491;SDS011;2768;53.540;10.224;2023-04-15T18:30:55;24.00;;;16.43;;
5491;SDS011;2768;53.540;10.224;2023-04-15T18:36:49;18.93;;;16.07;;
5491;SDS011;2768;53.540;10.224;2023-04-15T18:42:43;19.67;;;15.40;;
5491;SDS011;2768;53.540;10.224;2023-04-15T18:48:36;20.63;;;15.80;;
5491;SDS011;2768;53.540;10.224;2023-04-15T18:54:31;18.53;;;16.03;;
5491;SDS011;2768;53.540;10.224;2023-04-15T19:00:25;18.77;;;16.37;;
5491;SDS011;2768;53.540;10.224;2023-04-15T19:06:18;18.80;;;15.13;;
5491;SDS011;2768;53.540;10.224;2023-04-15T19:12:14;20.90;;;15.43;;
5491;SDS011;2768;53.540;10.224;2023-04-15T19:18:07;17.93;;;14.33;;
5491;SDS011;2768;53.540;10.224;2023-04-15T19:24:01;18.53;;;15.73;;
5491;SDS011;2768;53.540;10.224;2023-04-15T19:29:55;21.10;;;16.67;;
5491;SDS011;2768;53.540;10.224;2023-04-15T19:35:50;17.33;;;15.40;;
5491;SDS011;2768;53.540;10.224;2023-04-15T19:41:43;18.70;;;13.73;;
5491;SDS011;2768;53.540;10.224;2023-04-15T19:47:39;16.63;;;14.57;;
5491;SDS011;2768;53.540;10.224;2023-04-15T19:53:33;24.53;;;15.73;;
5491;SDS011;2768;53.540;10.224;2023-04-15T19:59:26;16.87;;;14.47;;
5491;SDS011;2768;53.540;10.224;2023-04-15T20:05:21;17.63;;;14.10;;
5491;SDS011;2768;53.540;10.224;2023-04-15T20:11:15;21.23;;;14.80;;
5491;SDS011;2768;53.540;10.224;2023-04-15T20:17:08;18.47;;;14.37;;
5491;SDS011;2768;53.540;10.224;2023-04-15T20:23:03;16.00;;;12.97;;
5491;SDS011;2768;53.540;10.224;2023-04-15T20:28:57;21.67;;;14.60;;
5491;SDS011;2768;53.540;10.224;2023-04-15T20:34:51;17.80;;;14.20;;
5491;SDS011;2768;53.540;10.224;2023-04-15T20:40:46;28.90;;;20.53;;
5491;SDS011;2768;53.540;10.224;2023-04-15T20:46:39;20.93;;;14.50;;
5491;SDS011;2768;53.540;10.224;2023-04-15T20:52:32;18.43;;;13.97;;
5491;SDS011;2768;53.540;10.224;2023-04-15T20:58:26;21.07;;;15.67;;
5491;SDS011;2768;53.540;10.224;2023-04-15T21:04:20;20.80;;;16.50;;
5491;SDS011;2768;53.540;10.224;2023-04-15T21:10:15;19.70;;;16.53;;
5491;SDS011;2768;53.540;10.224;2023-04-15T21:16:09;20.60;;;15.97;;
5491;SDS011;2768;53.540;10.224;2023-04-15T21:22:03;18.30;;;15.10;;
5491;SDS011;2768;53.540;10.224;2023-04-15T21:27:56;20.53;;;16.37;;
5491;SDS011;2768;53.540;10.224;2023-04-15T21:33:51;20.50;;;15.60;;
5491;SDS011;2768;53.540;10.224;2023-04-15T21:39:45;21.20;;;16.37;;
5491;SDS011;2768;53.540;10.224;2023-04-15T21:45:38;20.60;;;15.80;;
5491;SDS011;2768;53.540;10.224;2023-04-15T21:51:56;20.53;;;16.77;;
5491;SDS011;2768;53.540;10.224;2023-04-15T21:57:51;23.37;;;17.20;;
5491;SDS011;2768;53.540;10.224;2023-04-15T22:03:44;20.50;;;16.70;;
5491;SDS011;2768;53.540;10.224;2023-04-15T22:09:39;23.80;;;16.27;;
5491;SDS011;2768;53.540;10.224;2023-04-15T22:15:33;19.90;;;15.83;;
5491;SDS011;2768;53.540;10.224;2023-04-15T22:21:26;22.40;;;16.10;;
5491;SDS011;2768;53.540;10.224;2023-04-15T22:27:21;20.03;;;16.63;;
5491;SDS011;2768;53.540;10.224;2023-04-15T22:33:14;18.73;;;15.70;;
5491;SDS011;2768;53.540;10.224;2023-04-15T22:39:07;20.50;;;15.90;;
5491;SDS011;2768;53.540;10.224;2023-04-15T22:45:03;18.00;;;16.03;;
5491;SDS011;2768;53.540;10.224;2023-04-15T22:50:57;22.20;;;15.47;;
5491;SDS011;2768;53.540;10.224;2023-04-15T22:56:51;19.13;;;15.60;;
5491;SDS011;2768;53.540;10.224;2023-04-15T23:02:45;19.43;;;15.77;;
5491;SDS011;2768;53.540;10.224;2023-04-15T23:08:39;24.07;;;17.00;;
5491;SDS011;2768;53.540;10.224;2023-04-15T23:14:33;19.20;;;16.40;;
5491;SDS011;2768;53.540;10.224;2023-04-15T23:20:27;21.53;;;16.40;;
5491;SDS011;2768;53.540;10.224;2023-04-15T23:26:21;21.10;;;16.90;;
5491;SDS011;2768;53.540;10.224;2023-04-15T23:32:14;22.80;;;17.53;;
5491;SDS011;2768;53.540;10.224;2023-04-15T23:38:09;21.67;;;16.93;;
5491;SDS011;2768;53.540;10.224;2023-04-15T23:44:03;22.30;;;17.70;;
5491;SDS011;2768;53.540;10.224;2023-04-15T23:49:56;20.07;;;16.73;;
5491;SDS011;2768;53.540;10.224;2023-04-15T23:55:50;20.33;;;16.03;;
